MET'MAP v2.0
soon released !

Expected late october,
this new version will be
more efficient, smarter,
and hosted on a brand new
server x3 powerfull...
...and still free !


Not compatible ?
Try the mobile version !

LOG IN : | Subscribe | Disclaimer | Who is Orbifly ? |
ICAO code :

TAF - EISG Sligo - 07 Dec 2019 22:25 UTC - Data Source NOAA   


- Airport Elevation : 11 ft
- IATA code : SXL
- No reported NOTAMs.


EISG - Sligo

Latest METAR recorded : 2015/08/11 08:00 EISG 110800Z 24005KT 9999 BKN036 OVC042 12/10 Q1021
TAF TAF EISG
Valid from the 07 at 21:00 until the 08 at 06:00 UTC


072000Z 0721/0806 20018G32KT 9999 SCT010 BKN015
TEMPO 0721/0722 5000 -RADZ BKN010
PROB40
TEMPO 0721/0722 3000 RADZ BKN006
BECMG 0722/0724 26022G40KT FEW014 SCT025
BECMG 0800/0802 26018G35KT
TEMPO 0800/0806 4000 SHRAGS BKN014 SCT018CB

Source NOAA


MET'MAP, your aeronautical weather chart ! - Copyright ORBIFLY December 2007

Programming & Development : Alexandra Zaïnal
Co-Developer : Marc-Olivier Méhu
Technical & hardware support : Manuel Goepfert
Concept & Financing : Baudouin d'Aumeries